Time;durP1;ratioP1;P1;durP2;ratioP2;P2;SDS_P1;SDS_P2;PMS_P1;PMS_P2;Temp;Humidity;BMP_temperature;BMP_pressure;BME280_temperature;BME280_humidity;BME280_pressure;Samples;Min_cycle;Max_cycle;Signal;HPM_P1;HPM_P2
2021/12/30 00:00:50;;;;;;;4.6;3.3;;;;;;;;;;;;;
2021/12/30 00:03:19;;;;;;;5.3;3.6;;;;;;;;;;;;;
2021/12/30 00:05:50;;;;;;;6.7;3.7;;;;;;;;;;;;;
2021/12/30 00:08:14;;;;;;;5.5;3.5;;;;;;;;;;;;;
2021/12/30 00:10:40;;;;;;;6.9;4.2;;;;;;;;;;;;;
2021/12/30 00:13:04;;;;;;;7.2;4.3;;;;;;;;;;;;;
2021/12/30 00:15:37;;;;;;;6.6;4;;;;;;;;;;;;;
2021/12/30 00:18:03;;;;;;;3.7;3.1;;;;;;;;;;;;;
2021/12/30 00:22:54;;;;;;;4.2;3.2;;;;;;;;;;;;;
2021/12/30 00:25:19;;;;;;;3.4;2.6;;;;;;;;;;;;;
2021/12/30 00:27:44;;;;;;;3.6;2.9;;;;;;;;;;;;;
2021/12/30 00:30:14;;;;;;;4.2;2.9;;;;;;;;;;;;;
2021/12/30 00:32:39;;;;;;;5.1;3.6;;;;;;;;;;;;;
2021/12/30 00:35:08;;;;;;;5.1;3.8;;;;;;;;;;;;;
2021/12/30 00:37:34;;;;;;;5.1;3.7;;;;;;;;;;;;;
2021/12/30 00:39:59;;;;;;;5.2;3.7;;;;;;;;;;;;;
2021/12/30 00:42:24;;;;;;;4.9;3.3;;;;;;;;;;;;;
2021/12/30 00:44:50;;;;;;;4.4;3.2;;;;;;;;;;;;;
2021/12/30 00:47:15;;;;;;;4.5;3.2;;;;;;;;;;;;;
2021/12/30 00:49:41;;;;;;;4.3;2.8;;;;;;;;;;;;;
2021/12/30 00:52:06;;;;;;;3.2;2.6;;;;;;;;;;;;;
2021/12/30 00:54:33;;;;;;;4.4;3.1;;;;;;;;;;;;;
2021/12/30 00:56:59;;;;;;;4.4;3.1;;;;;;;;;;;;;
2021/12/30 00:59:24;;;;;;;5.9;3.4;;;;;;;;;;;;;
2021/12/30 01:01:49;;;;;;;4.8;3.1;;;;;;;;;;;;;
2021/12/30 01:04:18;;;;;;;5;3.3;;;;;;;;;;;;;
2021/12/30 01:06:41;;;;;;;4.6;2.9;;;;;;;;;;;;;
2021/12/30 01:09:08;;;;;;;3.4;2.9;;;;;;;;;;;;;
2021/12/30 01:11:34;;;;;;;4.8;3;;;;;;;;;;;;;
2021/12/30 01:14:03;;;;;;;2.2;1.8;;;;;;;;;;;;;
2021/12/30 01:16:29;;;;;;;3.2;2.4;;;;;;;;;;;;;
2021/12/30 01:19:14;;;;;;;2.8;2.1;;;;;;;;;;;;;
2021/12/30 01:21:18;;;;;;;2.9;2.2;;;;;;;;;;;;;
2021/12/30 01:23:43;;;;;;;3;2.2;;;;;;;;;;;;;
2021/12/30 01:26:09;;;;;;;3;2;;;;;;;;;;;;;
2021/12/30 01:28:34;;;;;;;3.6;2.3;;;;;;;;;;;;;
2021/12/30 01:33:24;;;;;;;4.8;3.8;;;;;;;;;;;;;
2021/12/30 01:35:49;;;;;;;5;3.5;;;;;;;;;;;;;
2021/12/30 01:38:16;;;;;;;5;3.2;;;;;;;;;;;;;
2021/12/30 01:40:40;;;;;;;5;3.8;;;;;;;;;;;;;
2021/12/30 01:43:07;;;;;;;6.9;4.1;;;;;;;;;;;;;
2021/12/30 01:45:32;;;;;;;5.4;3.1;;;;;;;;;;;;;
2021/12/30 01:47:58;;;;;;;4.5;3.5;;;;;;;;;;;;;
2021/12/30 01:50:23;;;;;;;8.7;5.1;;;;;;;;;;;;;
2021/12/30 01:52:49;;;;;;;9.2;5.5;;;;;;;;;;;;;
2021/12/30 01:55:14;;;;;;;5.9;4.4;;;;;;;;;;;;;
2021/12/30 01:57:39;;;;;;;6.8;4.8;;;;;;;;;;;;;
2021/12/30 02:00:04;;;;;;;6.7;5;;;;;;;;;;;;;
2021/12/30 02:02:33;;;;;;;7.4;4.8;;;;;;;;;;;;;
2021/12/30 02:04:58;;;;;;;6.1;4.6;;;;;;;;;;;;;
2021/12/30 02:07:24;;;;;;;7.6;4.7;;;;;;;;;;;;;
2021/12/30 02:09:50;;;;;;;7.7;4.4;;;;;;;;;;;;;
2021/12/30 02:12:15;;;;;;;7.4;4.2;;;;;;;;;;;;;
2021/12/30 02:14:40;;;;;;;6.4;4.6;;;;;;;;;;;;;
2021/12/30 02:17:10;;;;;;;8.7;4.8;;;;;;;;;;;;;
2021/12/30 02:19:35;;;;;;;5.6;4.3;;;;;;;;;;;;;
2021/12/30 02:22:02;;;;;;;4.5;4;;;;;;;;;;;;;
2021/12/30 02:24:28;;;;;;;7.6;4.3;;;;;;;;;;;;;
2021/12/30 02:26:53;;;;;;;6.4;4.5;;;;;;;;;;;;;
2021/12/30 02:29:18;;;;;;;5.9;4.6;;;;;;;;;;;;;
2021/12/30 02:31:43;;;;;;;4.9;3.6;;;;;;;;;;;;;
2021/12/30 02:34:09;;;;;;;6;3.8;;;;;;;;;;;;;
2021/12/30 02:36:34;;;;;;;3.9;3.1;;;;;;;;;;;;;
2021/12/30 02:39:00;;;;;;;4;3;;;;;;;;;;;;;
2021/12/30 02:41:32;;;;;;;3.6;3;;;;;;;;;;;;;
2021/12/30 02:43:52;;;;;;;3.1;2.4;;;;;;;;;;;;;
2021/12/30 02:46:17;;;;;;;2.9;2.3;;;;;;;;;;;;;
2021/12/30 02:48:42;;;;;;;3;2.6;;;;;;;;;;;;;
2021/12/30 02:51:08;;;;;;;4.3;2.6;;;;;;;;;;;;;
2021/12/30 02:53:34;;;;;;;3.1;2.4;;;;;;;;;;;;;
2021/12/30 02:55:59;;;;;;;2.6;2.4;;;;;;;;;;;;;
2021/12/30 02:58:24;;;;;;;2.8;2.1;;;;;;;;;;;;;
2021/12/30 03:00:49;;;;;;;2.3;1.5;;;;;;;;;;;;;
2021/12/30 03:03:15;;;;;;;1.3;1.2;;;;;;;;;;;;;
2021/12/30 03:05:40;;;;;;;1.7;1.6;;;;;;;;;;;;;
2021/12/30 03:08:07;;;;;;;2;1.8;;;;;;;;;;;;;
2021/12/30 03:10:32;;;;;;;1.5;1.1;;;;;;;;;;;;;
2021/12/30 03:13:03;;;;;;;1.8;1.6;;;;;;;;;;;;;
2021/12/30 03:15:22;;;;;;;2.1;1.3;;;;;;;;;;;;;
2021/12/30 03:17:50;;;;;;;2.2;1.3;;;;;;;;;;;;;
2021/12/30 03:20:16;;;;;;;1.5;1.3;;;;;;;;;;;;;
2021/12/30 03:22:41;;;;;;;2.7;1.2;;;;;;;;;;;;;
2021/12/30 03:25:06;;;;;;;1.2;1.1;;;;;;;;;;;;;
2021/12/30 03:27:31;;;;;;;1.7;1.2;;;;;;;;;;;;;
2021/12/30 03:29:56;;;;;;;1.2;1.1;;;;;;;;;;;;;
2021/12/30 03:32:22;;;;;;;1.1;1;;;;;;;;;;;;;
2021/12/30 03:34:47;;;;;;;0.8;0.6;;;;;;;;;;;;;
2021/12/30 03:37:14;;;;;;;1.5;1;;;;;;;;;;;;;
2021/12/30 03:39:40;;;;;;;1.1;0.8;;;;;;;;;;;;;
2021/12/30 03:42:05;;;;;;;0.6;0.6;;;;;;;;;;;;;
2021/12/30 03:44:32;;;;;;;1.9;1.1;;;;;;;;;;;;;
2021/12/30 03:46:57;;;;;;;0.8;0.8;;;;;;;;;;;;;
2021/12/30 03:49:22;;;;;;;1.3;0.9;;;;;;;;;;;;;
2021/12/30 03:51:47;;;;;;;0.6;0.6;;;;;;;;;;;;;
2021/12/30 03:54:14;;;;;;;0.8;0.7;;;;;;;;;;;;;
2021/12/30 03:56:39;;;;;;;0.8;0.6;;;;;;;;;;;;;
2021/12/30 03:59:05;;;;;;;0.8;0.8;;;;;;;;;;;;;
2021/12/30 04:08:52;;;;;;;0.7;0.7;;;;;;;7.98;100;939.3567;;;;
2021/12/30 04:11:17;;;;;;;1.6;0.8;;;;;;;8.02;100;939.2327;;;;
2021/12/30 04:13:47;;;;;;;0.9;0.7;;;;;;;8.12;100;939.2608;;;;
2021/12/30 04:16:13;;;;;;;0.7;0.7;;;;;;;8.07;100;939.3167;;;;
2021/12/30 04:18:39;;;;;;;1.4;0.8;;;;;;;7.98;100;939.4352;;;;
2021/12/30 04:21:08;;;;;;;0.8;0.8;;;;;;;7.86;100;939.4707;;;;
2021/12/30 04:23:36;;;;;;;1.2;0.8;;;;;;;7.89;100;939.5974;;;;
2021/12/30 04:26:02;;;;;;;1.3;0.9;;;;;;;8.02;100;939.5927;;;;
2021/12/30 04:28:30;;;;;;;1;0.8;;;;;;;8.16;100;939.5812;;;;
2021/12/30 04:31:36;;;;;;;1.6;0.8;;;;;;;8.21;100;939.7078;;;;
2021/12/30 04:34:04;;;;;;;1;0.8;;;;;;;8.32;100;939.802;;;;
2021/12/30 04:36:29;;;;;;;1.9;1.2;;;;;;;8.23;100;939.7495;;;;
2021/12/30 04:38:54;;;;;;;1;0.8;;;;;;;8.17;100;939.8384;;;;
2021/12/30 04:41:22;;;;;;;1.5;0.9;;;;;;;8.07;100;940.0336;;;;
2021/12/30 04:43:47;;;;;;;0.9;0.9;;;;;;;8.11;100;939.9543;;;;
2021/12/30 04:46:14;;;;;;;0.7;0.7;;;;;;;8.15;100;940.1378;;;;
2021/12/30 04:48:39;;;;;;;1.1;0.8;;;;;;;8.1;100;940.2128;;;;
2021/12/30 04:51:16;;;;;;;2.2;0.7;;;;;;;8.14;100;940.1945;;;;
2021/12/30 04:53:41;;;;;;;1.1;1;;;;;;;8.23;100;940.3039;;;;
2021/12/30 04:56:21;;;;;;;1.9;0.9;;;;;;;8.39;100;940.2964;;;;
2021/12/30 04:58:52;;;;;;;0.9;0.8;;;;;;;8.41;100;940.3095;;;;
2021/12/30 05:01:17;;;;;;;3.2;2.1;;;;;;;8.44;100;940.2018;;;;
2021/12/30 05:03:43;;;;;;;3.1;2.8;;;;;;;8.32;100;940.3273;;;;
2021/12/30 05:06:08;;;;;;;2.1;1.7;;;;;;;8.37;100;940.3049;;;;
2021/12/30 05:08:33;;;;;;;2.4;1.5;;;;;;;8.4;100;940.2395;;;;
2021/12/30 05:10:58;;;;;;;1.1;0.9;;;;;;;8.5;100;940.2886;;;;
2021/12/30 05:13:25;;;;;;;1.4;0.8;;;;;;;8.49;100;940.3106;;;;
2021/12/30 05:16:05;;;;;;;1.1;0.9;;;;;;;8.5;100;940.2944;;;;
2021/12/30 05:18:32;;;;;;;2.5;1.1;;;;;;;8.51;100;940.2992;;;;
2021/12/30 05:20:55;;;;;;;3.2;1.2;;;;;;;8.53;100;940.3822;;;;
2021/12/30 05:23:21;;;;;;;0.7;0.7;;;;;;;8.56;100;940.3978;;;;
2021/12/30 05:25:46;;;;;;;1.1;0.6;;;;;;;8.67;100;940.3067;;;;
2021/12/30 05:28:13;;;;;;;0.9;0.7;;;;;;;8.68;100;940.391;;;;
2021/12/30 05:30:40;;;;;;;1.3;0.9;;;;;;;8.64;100;940.3274;;;;
2021/12/30 05:33:05;;;;;;;1.4;0.8;;;;;;;8.68;100;940.4252;;;;
2021/12/30 05:35:33;;;;;;;1;0.6;;;;;;;8.7;100;940.5239;;;;
2021/12/30 05:38:00;;;;;;;1;0.6;;;;;;;8.71;100;940.4423;;;;
2021/12/30 05:40:23;;;;;;;0.9;0.8;;;;;;;8.75;100;940.5488;;;;
2021/12/30 05:42:51;;;;;;;1.6;0.7;;;;;;;8.77;100;940.5446;;;;
2021/12/30 05:45:16;;;;;;;2.5;1.3;;;;;;;8.73;100;940.5928;;;;
2021/12/30 05:47:47;;;;;;;3.8;1.2;;;;;;;8.72;100;940.6728;;;;
2021/12/30 05:50:15;;;;;;;1.3;0.8;;;;;;;8.76;100;940.5815;;;;
2021/12/30 05:52:41;;;;;;;1.3;0.8;;;;;;;8.72;100;940.649;;;;
2021/12/30 05:55:08;;;;;;;1.6;1;;;;;;;8.73;100;940.6819;;;;
2021/12/30 05:57:33;;;;;;;2.9;1.3;;;;;;;8.75;100;940.6473;;;;
2021/12/30 06:00:01;;;;;;;1.3;1.2;;;;;;;8.75;100;940.7695;;;;
2021/12/30 06:02:31;;;;;;;1.7;1.1;;;;;;;8.78;100;940.7789;;;;
2021/12/30 06:04:58;;;;;;;1.5;1.2;;;;;;;8.73;100;940.858;;;;
2021/12/30 06:07:25;;;;;;;2;1.1;;;;;;;8.73;100;940.8095;;;;
2021/12/30 06:09:55;;;;;;;1.1;1;;;;;;;8.52;100;940.8875;;;;
2021/12/30 06:12:25;;;;;;;1.6;1.5;;;;;;;8.35;100;940.8193;;;;
2021/12/30 06:14:55;;;;;;;1.4;1.3;;;;;;;8.48;100;940.7818;;;;
2021/12/30 06:17:24;;;;;;;1.7;1.6;;;;;;;8.52;100;940.8812;;;;
2021/12/30 06:19:51;;;;;;;1.3;1.2;;;;;;;8.58;100;940.838;;;;
2021/12/30 06:22:19;;;;;;;2.2;1.6;;;;;;;8.62;100;940.9487;;;;
2021/12/30 06:24:49;;;;;;;2.2;1.9;;;;;;;8.66;100;940.8613;;;;
2021/12/30 06:27:49;;;;;;;2.7;2;;;;;;;8.76;100;940.9523;;;;
2021/12/30 06:30:14;;;;;;;2.8;1.3;;;;;;;8.79;100;940.9528;;;;
2021/12/30 06:32:40;;;;;;;1.2;1.1;;;;;;;8.88;100;941.0114;;;;
2021/12/30 06:35:10;;;;;;;2.4;1.5;;;;;;;8.84;100;941.0305;;;;
2021/12/30 06:37:35;;;;;;;3.8;1.6;;;;;;;8.88;100;941.2575;;;;
2021/12/30 06:40:02;;;;;;;1.3;1.2;;;;;;;8.81;100;941.2078;;;;
2021/12/30 06:42:27;;;;;;;4.7;3.6;;;;;;;8.94;100;941.4716;;;;
2021/12/30 06:44:57;;;;;;;81.6;64.8;;;;;;;8.97;100;941.6105;;;;
2021/12/30 06:47:27;;;;;;;10.5;9.1;;;;;;;8.99;100;941.7324;;;;
2021/12/30 06:49:58;;;;;;;4;2;;;;;;;9;100;941.7827;;;;
2021/12/30 06:52:17;;;;;;;3.4;2.5;;;;;;;8.99;100;941.8761;;;;
2021/12/30 06:54:44;;;;;;;2.4;1.8;;;;;;;9.01;100;941.8391;;;;
2021/12/30 06:57:09;;;;;;;3.4;2.6;;;;;;;8.98;100;941.8934;;;;
2021/12/30 06:59:37;;;;;;;10.5;9.4;;;;;;;8.92;100;941.7896;;;;
2021/12/30 07:02:01;;;;;;;13.6;10.9;;;;;;;8.92;100;941.9572;;;;
2021/12/30 07:04:26;;;;;;;64.7;58.5;;;;;;;8.92;100;942.0787;;;;
2021/12/30 07:06:53;;;;;;;4.7;4;;;;;;;8.84;100;942.0105;;;;
2021/12/30 07:09:43;;;;;;;5.3;3.1;;;;;;;8.76;100;942.04;;;;
2021/12/30 07:12:19;;;;;;;3.6;3.3;;;;;;;8.58;100;942.1364;;;;
2021/12/30 07:14:47;;;;;;;4.8;4.1;;;;;;;8.69;100;942.0297;;;;
2021/12/30 07:17:18;;;;;;;7.1;5.1;;;;;;;8.83;100;942.15;;;;
2021/12/30 07:19:43;;;;;;;10.8;9.5;;;;;;;8.9;100;942.3022;;;;
2021/12/30 07:22:15;;;;;;;5.5;4.8;;;;;;;9;100;942.3251;;;;
2021/12/30 07:24:43;;;;;;;3.5;3;;;;;;;9.02;100;942.3376;;;;
2021/12/30 07:27:09;;;;;;;6.3;5.5;;;;;;;9.17;100;942.418;;;;
2021/12/30 07:29:38;;;;;;;3.7;2.7;;;;;;;9.21;100;942.4863;;;;
2021/12/30 07:32:03;;;;;;;2.8;1.4;;;;;;;9.09;100;942.545;;;;
2021/12/30 07:34:32;;;;;;;2;1.4;;;;;;;9.14;100;942.4832;;;;
2021/12/30 07:40:06;;;;;;;14.4;9;;;;;;;8.94;100;942.5056;;;;
2021/12/30 07:46:15;;;;;;;10.7;7.4;;;;;;;8.76;100;942.6664;;;;
2021/12/30 07:48:44;;;;;;;10.9;6.9;;;;;;;8.81;100;942.6298;;;;
2021/12/30 07:51:09;;;;;;;14.1;8.4;;;;;;;8.73;100;942.688;;;;
2021/12/30 07:53:37;;;;;;;16.4;9.4;;;;;;;8.6;100;942.6711;;;;
2021/12/30 07:56:02;;;;;;;14.2;8.5;;;;;;;8.79;100;942.683;;;;
2021/12/30 07:58:28;;;;;;;12.7;7.3;;;;;;;8.68;100;942.6599;;;;
2021/12/30 08:03:19;;;;;;;3.2;2.2;;;;;;;8.73;100;942.6324;;;;
2021/12/30 08:05:48;;;;;;;4.2;3.2;;;;;;;8.95;100;942.6376;;;;
2021/12/30 08:08:16;;;;;;;8.1;4.9;;;;;;;9.06;100;942.6611;;;;
2021/12/30 08:10:42;;;;;;;6.2;4.2;;;;;;;9.14;100;942.7042;;;;
2021/12/30 08:13:07;;;;;;;8.1;5.3;;;;;;;9.07;100;942.7662;;;;
2021/12/30 08:15:48;;;;;;;6.6;4.6;;;;;;;9.1;100;942.7445;;;;
2021/12/30 08:18:18;;;;;;;5.5;4.5;;;;;;;9.02;100;942.7946;;;;
2021/12/30 08:20:47;;;;;;;7.9;5.6;;;;;;;9.08;100;942.7377;;;;
2021/12/30 08:26:33;;;;;;;19.2;13.4;;;;;;;9.12;100;942.7252;;;;
2021/12/30 08:28:58;;;;;;;10.3;7.7;;;;;;;9.26;100;942.7644;;;;
2021/12/30 08:31:28;;;;;;;11;7.4;;;;;;;9.29;100;942.7648;;;;
2021/12/30 08:33:57;;;;;;;13.7;10;;;;;;;9.22;100;942.7117;;;;
2021/12/30 08:36:22;;;;;;;12.5;8.5;;;;;;;9.08;100;942.6758;;;;
2021/12/30 08:38:50;;;;;;;11.2;8.8;;;;;;;9.27;100;942.6238;;;;
2021/12/30 08:41:15;;;;;;;14.6;10;;;;;;;9.41;100;942.6677;;;;
2021/12/30 08:43:40;;;;;;;23.1;16.1;;;;;;;9.53;100;942.5929;;;;
2021/12/30 08:46:08;;;;;;;14.1;8.2;;;;;;;9.51;100;942.7261;;;;
2021/12/30 08:48:37;;;;;;;11;7.7;;;;;;;9.63;100;942.623;;;;
2021/12/30 08:51:02;;;;;;;11.1;8.5;;;;;;;9.69;100;942.6155;;;;
2021/12/30 08:53:29;;;;;;;9.5;7.1;;;;;;;9.69;100;942.6997;;;;
2021/12/30 08:55:53;;;;;;;9.2;7.1;;;;;;;9.71;100;942.6381;;;;
2021/12/30 08:58:18;;;;;;;11.4;8.3;;;;;;;9.76;100;942.6638;;;;
2021/12/30 09:00:47;;;;;;;10;7.4;;;;;;;9.61;100;942.633;;;;
2021/12/30 09:03:10;;;;;;;7.9;5.7;;;;;;;9.54;100;942.7601;;;;
2021/12/30 09:05:46;;;;;;;6.5;4.2;;;;;;;9.5;100;942.6082;;;;
2021/12/30 09:08:14;;;;;;;5;3.9;;;;;;;9.81;100;942.6074;;;;
2021/12/30 09:10:40;;;;;;;5;2.9;;;;;;;10;100;942.5628;;;;
2021/12/30 09:13:26;;;;;;;3.7;2.7;;;;;;;10.09;100;942.6602;;;;
2021/12/30 09:16:02;;;;;;;4.4;2.4;;;;;;;10.02;100;942.6167;;;;
2021/12/30 09:18:26;;;;;;;7.8;4.8;;;;;;;10.15;100;942.6667;;;;
2021/12/30 09:20:53;;;;;;;9.1;6.3;;;;;;;10.32;100;942.5908;;;;
2021/12/30 09:23:19;;;;;;;16.5;10.1;;;;;;;10.1;100;942.6102;;;;
2021/12/30 09:25:45;;;;;;;19.1;10.9;;;;;;;10.16;100;942.5834;;;;
2021/12/30 09:28:12;;;;;;;6.9;4.9;;;;;;;10.06;100;942.5984;;;;
2021/12/30 09:30:38;;;;;;;17.7;14;;;;;;;10.43;100;942.5898;;;;
2021/12/30 09:33:03;;;;;;;22.9;16.4;;;;;;;10.55;100;942.5917;;;;
2021/12/30 09:35:30;;;;;;;15.4;10.9;;;;;;;10.77;99.38672;942.6872;;;;
2021/12/30 09:37:55;;;;;;;21.6;14;;;;;;;10.94;97.72363;942.7243;;;;
2021/12/30 09:40:21;;;;;;;20.5;13;;;;;;;11.04;97.09473;942.613;;;;
2021/12/30 09:43:51;;;;;;;18.3;12.4;;;;;;;11.15;96.59277;942.6058;;;;
2021/12/30 09:46:19;;;;;;;18.8;12.4;;;;;;;11.16;95.26855;942.6608;;;;
2021/12/30 09:48:44;;;;;;;23.7;15.8;;;;;;;11.16;95.9082;942.652;;;;
2021/12/30 09:51:09;;;;;;;13.2;9;;;;;;;11.07;95.52441;942.6676;;;;
2021/12/30 09:53:35;;;;;;;8.6;6.5;;;;;;;11;96.70703;942.5928;;;;
2021/12/30 09:56:00;;;;;;;8.4;5.6;;;;;;;10.85;97.45117;942.5779;;;;
2021/12/30 09:58:25;;;;;;;4.2;3.2;;;;;;;10.97;95.93555;942.535;;;;
2021/12/30 10:00:51;;;;;;;46.1;30;;;;;;;11.1;95.75781;942.4423;;;;
2021/12/30 10:03:17;;;;;;;15.6;11.7;;;;;;;11.32;94.97266;942.4481;;;;
2021/12/30 10:05:42;;;;;;;16.1;11;;;;;;;11.4;94.24609;942.4355;;;;
2021/12/30 10:08:09;;;;;;;15.7;11.2;;;;;;;11.62;93.56348;942.4589;;;;
2021/12/30 10:10:35;;;;;;;12.4;8.1;;;;;;;11.76;92.49316;942.5131;;;;
2021/12/30 10:13:00;;;;;;;11.1;8.7;;;;;;;11.8;93.33691;942.3965;;;;
2021/12/30 10:15:28;;;;;;;13;9.7;;;;;;;11.72;93.82324;942.4041;;;;
2021/12/30 10:17:53;;;;;;;16.3;12.9;;;;;;;11.75;94.09375;942.3997;;;;
2021/12/30 10:20:18;;;;;;;11.6;8.1;;;;;;;11.81;94.05957;942.4246;;;;
2021/12/30 10:22:44;;;;;;;9.2;7;;;;;;;11.92;93.62305;942.3734;;;;
2021/12/30 10:25:09;;;;;;;7.2;5.7;;;;;;;11.93;93.36621;942.3776;;;;
2021/12/30 10:27:38;;;;;;;6.6;5.1;;;;;;;11.96;93.62402;942.4146;;;;
2021/12/30 10:30:03;;;;;;;7.2;4.2;;;;;;;11.96;93.80664;942.3491;;;;
2021/12/30 10:32:27;;;;;;;5.9;5;;;;;;;11.93;93.9502;942.2778;;;;
2021/12/30 10:34:52;;;;;;;4.5;3.3;;;;;;;11.88;93.89258;942.31;;;;
2021/12/30 10:37:37;;;;;;;6;4.8;;;;;;;11.92;93.83398;942.3926;;;;
2021/12/30 10:40:03;;;;;;;6.6;5.7;;;;;;;11.95;94.33203;942.3378;;;;
2021/12/30 10:42:30;;;;;;;3.9;2.9;;;;;;;11.99;93.65234;942.4628;;;;
2021/12/30 10:44:53;;;;;;;1.7;1.6;;;;;;;12.15;93.24023;942.3546;;;;
2021/12/30 10:47:20;;;;;;;2.9;2.3;;;;;;;12.22;90.21875;942.3036;;;;
2021/12/30 10:49:45;;;;;;;6.6;3.1;;;;;;;12.24;90.52051;942.1857;;;;
2021/12/30 10:52:12;;;;;;;7;4.5;;;;;;;12.19;90.68066;942.236;;;;
2021/12/30 10:55:38;;;;;;;4.9;3.2;;;;;;;12.25;91.1416;942.0723;;;;
2021/12/30 10:58:03;;;;;;;4.4;2.1;;;;;;;12.39;91.6875;942.1016;;;;
2021/12/30 11:00:32;;;;;;;3.6;1.6;;;;;;;12.67;91.40039;942.0764;;;;
2021/12/30 11:02:57;;;;;;;2.1;1.6;;;;;;;12.92;89.68555;942.0497;;;;
2021/12/30 11:05:24;;;;;;;2.2;1.6;;;;;;;12.84;89.62305;941.9453;;;;
2021/12/30 11:07:51;;;;;;;0.9;0.9;;;;;;;13.02;89.04004;941.9866;;;;
2021/12/30 11:11:18;;;;;;;2.5;1.5;;;;;;;13.13;87.63965;942.0369;;;;
2021/12/30 11:13:43;;;;;;;4.5;2.2;;;;;;;13.01;89.49805;942.015;;;;
2021/12/30 11:16:12;;;;;;;3.8;1.5;;;;;;;13.01;90.27832;941.9927;;;;
2021/12/30 11:18:43;;;;;;;3.9;1.7;;;;;;;13.06;90.08301;942.0012;;;;
2021/12/30 11:21:07;;;;;;;3.7;1.6;;;;;;;13.2;89.69727;941.9775;;;;
2021/12/30 11:23:32;;;;;;;3.1;2.4;;;;;;;13.31;88.11133;942.008;;;;
2021/12/30 11:26:03;;;;;;;2.3;2.1;;;;;;;13.39;88.56641;942.0667;;;;
2021/12/30 11:28:33;;;;;;;2.4;1.3;;;;;;;13.63;87.11914;942.0739;;;;
2021/12/30 11:30:58;;;;;;;2.2;1.4;;;;;;;13.78;86.88477;942.1033;;;;
2021/12/30 11:33:23;;;;;;;4.5;3.3;;;;;;;13.9;85.07715;942.0823;;;;
2021/12/30 11:35:48;;;;;;;4.6;3.7;;;;;;;13.96;85.25293;942.185;;;;
2021/12/30 11:38:15;;;;;;;3.7;2.1;;;;;;;13.97;85.59766;942.1074;;;;
2021/12/30 11:40:40;;;;;;;2.5;1.8;;;;;;;13.91;86.17188;942.1256;;;;
2021/12/30 11:43:06;;;;;;;4.4;2;;;;;;;13.86;86.2666;942.1078;;;;
2021/12/30 11:45:31;;;;;;;3;1.7;;;;;;;13.75;88.1543;942.1287;;;;
2021/12/30 11:47:59;;;;;;;1.9;1.3;;;;;;;13.66;88.98926;942.0164;;;;
2021/12/30 11:50:24;;;;;;;2.6;1.4;;;;;;;13.71;89.15918;941.9799;;;;
2021/12/30 11:52:49;;;;;;;3.3;1.8;;;;;;;13.91;88.46191;942.0591;;;;
2021/12/30 11:55:14;;;;;;;10.6;9.3;;;;;;;13.85;88.98047;942.0181;;;;
2021/12/30 11:57:42;;;;;;;4.3;3.5;;;;;;;13.83;88.58496;942.0733;;;;
2021/12/30 12:01:08;;;;;;;3.7;2.5;;;;;;;13.87;88.55859;941.9822;;;;
2021/12/30 12:03:35;;;;;;;6.6;4.5;;;;;;;14.04;87.87891;941.9604;;;;
2021/12/30 12:06:00;;;;;;;3.8;3;;;;;;;14.13;87.28711;942.0471;;;;
2021/12/30 12:08:25;;;;;;;4.1;3.1;;;;;;;14.07;86.67773;942.0326;;;;
2021/12/30 12:10:50;;;;;;;2.3;0.7;;;;;;;13.59;83.07422;942.1008;;;;
2021/12/30 12:13:17;;;;;;;1;0.8;;;;;;;13.74;82.68945;942.0672;;;;
2021/12/30 12:15:52;;;;;;;1.1;0.5;;;;;;;13.94;81.76172;942.0664;;;;
2021/12/30 12:18:19;;;;;;;0.9;0.9;;;;;;;13.68;82.28809;942.0694;;;;
2021/12/30 12:20:43;;;;;;;1.5;0.8;;;;;;;13.62;82.11328;942.0787;;;;
2021/12/30 12:23:08;;;;;;;0.8;0.8;;;;;;;13.76;83.37305;942.0815;;;;
2021/12/30 12:25:33;;;;;;;1.6;0.7;;;;;;;13.79;82.11328;942.0705;;;;
2021/12/30 12:27:58;;;;;;;1.3;0.9;;;;;;;13.47;84.95996;942.1378;;;;
2021/12/30 12:30:24;;;;;;;1.1;0.7;;;;;;;13.55;84.45801;942.135;;;;
2021/12/30 12:32:49;;;;;;;2.7;1.9;;;;;;;13.58;83.25586;942.1583;;;;
2021/12/30 12:36:27;;;;;;;0.8;0.8;;;;;;;13.5;84.81543;942.1667;;;;
2021/12/30 12:38:53;;;;;;;0.8;0.8;;;;;;;13.65;85.35352;942.1949;;;;
2021/12/30 12:41:17;;;;;;;3;1.5;;;;;;;13.35;85.98145;942.2673;;;;
2021/12/30 12:43:42;;;;;;;3;1.6;;;;;;;13.49;86.41211;942.1875;;;;
2021/12/30 12:46:07;;;;;;;2.1;1.3;;;;;;;13.64;86.04004;942.2717;;;;
2021/12/30 12:48:33;;;;;;;2.4;1.4;;;;;;;13.76;83.96973;942.3546;;;;
2021/12/30 12:50:59;;;;;;;1.1;1;;;;;;;13.75;83.58691;942.2864;;;;
2021/12/30 12:53:26;;;;;;;1.8;1;;;;;;;13.78;82.74219;942.2281;;;;
2021/12/30 12:55:50;;;;;;;2.5;1;;;;;;;13.52;83.22168;942.3284;;;;
2021/12/30 12:58:17;;;;;;;1.4;0.8;;;;;;;13.49;82.84863;942.3947;;;;
2021/12/30 13:00:40;;;;;;;1;0.8;;;;;;;13.47;83.30469;942.3962;;;;
2021/12/30 13:03:07;;;;;;;1.1;0.9;;;;;;;13.11;84.61328;942.4149;;;;
2021/12/30 13:05:32;;;;;;;2.3;1;;;;;;;13.24;84.54688;942.4035;;;;
2021/12/30 13:07:57;;;;;;;0.7;0.7;;;;;;;13.31;84.17188;942.3655;;;;
2021/12/30 13:10:22;;;;;;;1.4;0.8;;;;;;;13.41;84.03027;942.3932;;;;
2021/12/30 13:12:50;;;;;;;1.8;1.1;;;;;;;13.46;86.56738;942.3681;;;;
2021/12/30 13:15:15;;;;;;;1.4;1.2;;;;;;;13.53;86.72168;942.3261;;;;
2021/12/30 13:17:44;;;;;;;4.9;3.5;;;;;;;13.63;87.33887;942.3981;;;;
2021/12/30 13:20:09;;;;;;;2.7;2.1;;;;;;;13.57;89.82031;942.3495;;;;
2021/12/30 13:22:34;;;;;;;1.5;1.4;;;;;;;13.46;91.03906;942.4194;;;;
2021/12/30 13:24:59;;;;;;;2.3;1.7;;;;;;;13.46;90.13086;942.4338;;;;
2021/12/30 13:27:28;;;;;;;3.5;2.6;;;;;;;13.46;89.64844;942.5034;;;;
2021/12/30 13:29:53;;;;;;;4.2;2.4;;;;;;;13.5;89.94336;942.4283;;;;
2021/12/30 13:32:30;;;;;;;4.1;2.8;;;;;;;13.54;90.00977;942.4718;;;;
2021/12/30 13:34:57;;;;;;;1.9;1.7;;;;;;;13.59;89.52441;942.4808;;;;
2021/12/30 13:37:20;;;;;;;2.3;1.7;;;;;;;13.61;89.00098;942.5097;;;;
2021/12/30 13:39:45;;;;;;;2.9;1.7;;;;;;;13.58;89.5918;942.5439;;;;
2021/12/30 13:42:11;;;;;;;2.1;1.9;;;;;;;13.63;89.46484;942.4629;;;;
2021/12/30 13:45:01;;;;;;;2.3;2.1;;;;;;;13.63;89.81934;942.4356;;;;
2021/12/30 13:47:26;;;;;;;2.9;2.5;;;;;;;13.54;90.25098;942.5542;;;;
2021/12/30 13:49:51;;;;;;;9.3;6.2;;;;;;;13.47;90.73047;942.5019;;;;
2021/12/30 13:52:16;;;;;;;3.6;2.7;;;;;;;13.2;89.91797;942.4973;;;;
2021/12/30 13:54:43;;;;;;;3.2;1.9;;;;;;;12.92;91.33887;942.5748;;;;
2021/12/30 13:57:08;;;;;;;3.6;1.6;;;;;;;12.85;90.83203;942.5447;;;;
2021/12/30 13:59:33;;;;;;;4.2;2.5;;;;;;;12.98;91.36328;942.5129;;;;
2021/12/30 14:01:59;;;;;;;4.6;2.3;;;;;;;13.09;91.12402;942.4324;;;;
2021/12/30 14:04:28;;;;;;;4.4;3.4;;;;;;;13.16;90.81348;942.4911;;;;
2021/12/30 14:06:49;;;;;;;5.4;4;;;;;;;13.16;91.26172;942.504;;;;
2021/12/30 14:09:14;;;;;;;8;5.9;;;;;;;13.17;90.58984;942.4592;;;;
2021/12/30 14:11:40;;;;;;;6.7;5.1;;;;;;;13.2;90.02148;942.5605;;;;
2021/12/30 14:14:07;;;;;;;8.4;5.4;;;;;;;13.19;89.94824;942.5421;;;;
2021/12/30 14:16:35;;;;;;;9;4.7;;;;;;;13.22;90.24316;942.5226;;;;
2021/12/30 14:19:00;;;;;;;13.8;9.4;;;;;;;13.28;90.54297;942.5965;;;;
2021/12/30 14:21:25;;;;;;;10.3;7.2;;;;;;;13.03;93.33691;942.6103;;;;
2021/12/30 14:25:06;;;;;;;14.5;9.7;;;;;;;12.91;94.90723;942.5604;;;;
2021/12/30 14:27:34;;;;;;;9.7;6.8;;;;;;;12.84;95.78906;942.5934;;;;
2021/12/30 14:29:59;;;;;;;10.1;6.6;;;;;;;12.89;95.54395;942.5873;;;;
2021/12/30 14:32:25;;;;;;;9.8;5.5;;;;;;;12.97;94.88672;942.5352;;;;
2021/12/30 14:34:51;;;;;;;8.3;5.9;;;;;;;13.01;94.13672;942.557;;;;
2021/12/30 14:37:22;;;;;;;6.1;4.3;;;;;;;12.95;92.09277;942.5175;;;;
2021/12/30 14:39:42;;;;;;;6.7;4.5;;;;;;;12.91;91.85547;942.4765;;;;
2021/12/30 14:42:07;;;;;;;5.8;4.3;;;;;;;12.94;91.72363;942.5062;;;;
2021/12/30 14:44:33;;;;;;;7.4;5.1;;;;;;;13;91.80371;942.6592;;;;
2021/12/30 14:46:59;;;;;;;13.3;6.1;;;;;;;13.04;91.58398;942.707;;;;
2021/12/30 14:49:24;;;;;;;9.4;7.3;;;;;;;12.99;93.00781;942.6792;;;;
2021/12/30 14:51:49;;;;;;;5;4.2;;;;;;;12.92;93.66992;942.7035;;;;
2021/12/30 14:54:14;;;;;;;6;4.5;;;;;;;12.82;94.20117;942.7427;;;;
2021/12/30 14:56:39;;;;;;;6.9;4.6;;;;;;;12.79;94.56055;942.7278;;;;
2021/12/30 14:59:04;;;;;;;9;5.3;;;;;;;12.66;94.47559;942.7236;;;;
2021/12/30 15:01:42;;;;;;;10.1;6.4;;;;;;;12.53;94.82422;942.7078;;;;
2021/12/30 15:04:08;;;;;;;12.4;6.4;;;;;;;12.56;94.5918;942.8342;;;;
2021/12/30 15:06:33;;;;;;;13.2;8.1;;;;;;;12.37;96.62402;942.8098;;;;
2021/12/30 15:09:00;;;;;;;10.3;6.6;;;;;;;12.4;96.43457;942.8132;;;;
2021/12/30 15:11:29;;;;;;;14.7;9.5;;;;;;;12.47;96.1875;942.863;;;;
2021/12/30 15:13:53;;;;;;;13.2;7.8;;;;;;;12.39;96.48047;942.8578;;;;
2021/12/30 15:16:26;;;;;;;12.8;8.6;;;;;;;12.38;96.375;942.8258;;;;
2021/12/30 15:18:51;;;;;;;15.9;11.6;;;;;;;12.33;94.96484;942.8789;;;;
2021/12/30 15:21:20;;;;;;;11.3;8.2;;;;;;;12.28;93.94629;942.947;;;;
2021/12/30 15:23:44;;;;;;;7.9;5.7;;;;;;;12.2;94.61621;943.033;;;;
2021/12/30 15:26:12;;;;;;;15.1;10.2;;;;;;;12.26;94.92578;943.0681;;;;
2021/12/30 15:28:36;;;;;;;13.9;9.2;;;;;;;12.16;95.62598;943.0595;;;;
2021/12/30 15:31:02;;;;;;;13.6;9.4;;;;;;;12.16;95.53418;943.0157;;;;
2021/12/30 15:33:27;;;;;;;13.5;9.9;;;;;;;12.13;96.15918;943.0489;;;;
2021/12/30 15:35:53;;;;;;;12.4;8.6;;;;;;;12.12;96.30566;943.0856;;;;
2021/12/30 15:38:18;;;;;;;13.5;8.8;;;;;;;12.07;96.52344;943.1256;;;;
2021/12/30 15:40:47;;;;;;;13.8;10.4;;;;;;;12.05;96.20996;943.1486;;;;
2021/12/30 15:43:10;;;;;;;15;10.5;;;;;;;12.02;96.5;943.1243;;;;
2021/12/30 15:45:36;;;;;;;11.1;8.7;;;;;;;12.02;96.13281;943.0779;;;;
2021/12/30 15:48:00;;;;;;;15.8;12.4;;;;;;;11.88;96.29785;943.1942;;;;
2021/12/30 15:50:27;;;;;;;22.1;16.7;;;;;;;11.74;96.67969;943.2263;;;;
2021/12/30 15:52:52;;;;;;;16.5;12.5;;;;;;;11.74;97.02344;943.2158;;;;
2021/12/30 15:55:18;;;;;;;6.8;5.5;;;;;;;11.7;97.45996;943.1848;;;;
2021/12/30 15:57:43;;;;;;;8.4;5.1;;;;;;;11.65;98.13379;943.2736;;;;
2021/12/30 16:00:08;;;;;;;8.1;5.7;;;;;;;11.48;97.60352;943.2925;;;;
2021/12/30 16:02:34;;;;;;;8.7;5.7;;;;;;;11.46;97.06348;943.325;;;;
2021/12/30 16:04:59;;;;;;;10;6.8;;;;;;;11.42;97.39648;943.1856;;;;
2021/12/30 16:07:24;;;;;;;8;5.4;;;;;;;11.38;97.38867;943.3069;;;;
2021/12/30 16:09:52;;;;;;;9;6;;;;;;;11.35;96.87695;943.2338;;;;
2021/12/30 16:12:16;;;;;;;6.8;4.8;;;;;;;11.35;96.24805;943.2186;;;;
2021/12/30 16:14:43;;;;;;;6.7;4.4;;;;;;;11.29;96.70508;943.1923;;;;
2021/12/30 16:17:09;;;;;;;5.9;3.8;;;;;;;11.2;97.15332;943.2155;;;;
2021/12/30 16:19:34;;;;;;;6.3;3.9;;;;;;;11.1;97.10645;943.1899;;;;
2021/12/30 16:21:59;;;;;;;6.5;4.3;;;;;;;11.07;97.45508;943.2556;;;;
2021/12/30 16:24:24;;;;;;;12.1;8.2;;;;;;;10.98;98.47461;943.2539;;;;
2021/12/30 16:26:50;;;;;;;16.8;11.5;;;;;;;10.88;98.14355;943.2803;;;;
2021/12/30 16:29:16;;;;;;;34.7;21.4;;;;;;;10.73;100;943.3222;;;;